createdAt,value
2023-04-10T00:01:35.891Z,15.07
2023-04-10T00:04:06.122Z,15.07
2023-04-10T00:06:34.235Z,15.05
2023-04-10T00:09:02.374Z,15.01
2023-04-10T00:11:30.655Z,14.98
2023-04-10T00:13:58.329Z,14.96
2023-04-10T00:16:26.440Z,14.88
2023-04-10T00:18:54.132Z,14.95
2023-04-10T00:21:23.167Z,14.94
2023-04-10T00:23:51.139Z,14.93
2023-04-10T00:26:20.836Z,14.94
2023-04-10T00:28:48.327Z,14.99
2023-04-10T00:31:16.333Z,15.00
2023-04-10T00:33:43.998Z,14.99
2023-04-10T00:36:12.037Z,14.98
2023-04-10T00:38:41.420Z,14.98
2023-04-10T00:41:09.110Z,14.97
2023-04-10T00:43:37.072Z,14.97
2023-04-10T00:46:06.961Z,14.97
2023-04-10T00:48:35.267Z,14.96
2023-04-10T00:51:03.626Z,14.96
2023-04-10T00:53:31.786Z,14.96
2023-04-10T00:56:02.753Z,14.96
2023-04-10T00:58:30.936Z,14.93
2023-04-10T01:00:58.673Z,14.94
2023-04-10T01:03:26.679Z,14.93
2023-04-10T01:06:07.194Z,14.90
2023-04-10T01:08:45.287Z,14.93
2023-04-10T01:11:20.013Z,14.92
2023-04-10T01:13:53.533Z,14.93
2023-04-10T01:16:28.086Z,14.89
2023-04-10T01:19:02.361Z,14.88
2023-04-10T01:21:32.938Z,14.84
2023-04-10T01:24:32.231Z,14.84
2023-04-10T01:27:13.825Z,14.83
2023-04-10T01:29:47.189Z,14.81
2023-04-10T01:32:19.199Z,14.80
2023-04-10T01:34:50.511Z,14.77
2023-04-10T01:37:22.206Z,14.76
2023-04-10T01:39:55.421Z,14.74
2023-04-10T01:42:24.799Z,14.72
2023-04-10T01:44:55.773Z,14.72
2023-04-10T01:47:25.626Z,14.70
2023-04-10T01:49:55.829Z,14.69
2023-04-10T01:52:24.684Z,14.68
2023-04-10T01:54:54.558Z,14.66
2023-04-10T01:57:22.709Z,14.66
2023-04-10T01:59:50.831Z,14.64
2023-04-10T02:02:20.331Z,14.63
2023-04-10T02:04:51.560Z,14.61
2023-04-10T02:07:26.450Z,14.61
2023-04-10T02:09:59.957Z,14.60
2023-04-10T02:12:32.090Z,14.58
2023-04-10T02:15:02.814Z,14.57
2023-04-10T02:17:33.271Z,14.55
2023-04-10T02:20:01.664Z,14.52
2023-04-10T02:22:30.001Z,14.51
2023-04-10T02:24:59.033Z,14.49
2023-04-10T02:27:31.219Z,14.51
2023-04-10T02:30:00.737Z,14.49
2023-04-10T02:32:28.495Z,14.47
2023-04-10T02:34:57.878Z,14.48
2023-04-10T02:37:26.281Z,14.47
2023-04-10T02:39:54.745Z,14.46
2023-04-10T02:42:22.588Z,14.45
2023-04-10T02:44:50.723Z,14.42
2023-04-10T02:47:18.821Z,14.41
2023-04-10T02:49:48.210Z,14.41
2023-04-10T02:52:18.215Z,14.40
2023-04-10T02:54:46.331Z,14.39
2023-04-10T02:57:14.036Z,14.37
2023-04-10T02:59:42.444Z,14.37
2023-04-10T03:02:10.488Z,14.35
2023-04-10T03:04:38.393Z,14.34
2023-04-10T03:07:06.370Z,14.33
2023-04-10T03:09:35.526Z,14.34
2023-04-10T03:12:03.350Z,14.32
2023-04-10T03:14:31.419Z,14.31
2023-04-10T03:16:59.091Z,14.29
2023-04-10T03:19:28.069Z,14.29
2023-04-10T03:21:56.151Z,14.28
2023-04-10T03:24:23.885Z,14.27
2023-04-10T03:26:52.981Z,14.27
2023-04-10T03:29:21.102Z,14.24
2023-04-10T03:31:48.803Z,14.24
2023-04-10T03:34:16.860Z,14.23
2023-04-10T03:36:44.917Z,14.24
2023-04-10T03:39:12.584Z,14.23
2023-04-10T03:41:40.309Z,14.20
2023-04-10T03:44:09.711Z,14.21
2023-04-10T03:46:37.423Z,14.20
2023-04-10T03:49:05.286Z,14.18
2023-04-10T03:51:33.316Z,14.17
2023-04-10T03:54:01.213Z,14.16
2023-04-10T03:56:29.250Z,14.14
2023-04-10T03:58:57.092Z,14.14
2023-04-10T04:01:26.213Z,14.14
2023-04-10T04:03:54.715Z,14.13
2023-04-10T04:06:22.685Z,14.12
2023-04-10T04:08:50.393Z,14.11
2023-04-10T04:11:18.680Z,14.09
2023-04-10T04:13:46.367Z,14.07
2023-04-10T04:16:14.083Z,14.05
2023-04-10T04:18:43.820Z,14.02
2023-04-10T04:21:11.574Z,14.02
2023-04-10T04:23:39.378Z,13.99
2023-04-10T04:26:07.823Z,13.98
2023-04-10T04:28:35.504Z,13.98
2023-04-10T04:31:03.285Z,13.95
2023-04-10T04:33:31.303Z,13.95
2023-04-10T04:36:00.363Z,13.95
2023-04-10T04:38:28.055Z,13.93
2023-04-10T04:40:56.014Z,13.92
2023-04-10T04:43:23.688Z,13.92
2023-04-10T04:45:51.420Z,13.92
2023-04-10T04:48:19.480Z,13.90
2023-04-10T04:50:47.160Z,13.90
2023-04-10T04:53:16.181Z,13.91
2023-04-10T04:55:44.070Z,13.90
2023-04-10T04:58:11.758Z,13.89
2023-04-10T05:00:39.437Z,13.89
2023-04-10T05:03:07.437Z,13.87
2023-04-10T05:05:35.598Z,13.86
2023-04-10T05:08:03.290Z,13.86
2023-04-10T05:10:32.749Z,13.86
2023-04-10T05:13:00.443Z,13.86
2023-04-10T05:15:28.691Z,13.85
2023-04-10T05:17:56.890Z,13.83
2023-04-10T05:20:24.703Z,13.83
2023-04-10T05:22:53.043Z,13.83
2023-04-10T05:25:21.259Z,13.84
2023-04-10T05:27:50.643Z,13.82
2023-04-10T05:30:18.768Z,13.84
2023-04-10T05:32:47.197Z,13.84
2023-04-10T05:35:15.009Z,13.84
2023-04-10T05:37:42.948Z,13.84
2023-04-10T05:40:11.571Z,13.84
2023-04-10T05:42:39.233Z,13.83
2023-04-10T05:45:09.190Z,13.88
2023-04-10T05:47:37.339Z,13.86
2023-04-10T05:50:05.580Z,13.86
2023-04-10T05:52:33.260Z,13.87
2023-04-10T05:55:01.227Z,13.88
2023-04-10T05:57:30.401Z,13.90
2023-04-10T05:59:58.110Z,13.90
2023-04-10T06:02:27.861Z,13.93
2023-04-10T06:04:56.014Z,13.92
2023-04-10T06:07:23.760Z,13.93
2023-04-10T06:09:51.544Z,13.93
2023-04-10T06:12:19.224Z,13.93
2023-04-10T06:14:47.036Z,13.95
2023-04-10T06:17:15.142Z,13.93
2023-04-10T06:19:44.195Z,13.97
2023-04-10T06:22:11.910Z,13.98
2023-04-10T06:24:39.855Z,13.98
2023-04-10T06:27:07.559Z,13.97
2023-04-10T06:29:35.230Z,13.98
2023-04-10T06:32:03.247Z,13.98
2023-04-10T06:34:31.032Z,14.00
2023-04-10T06:37:00.451Z,14.01
2023-04-10T06:39:28.400Z,14.02
2023-04-10T06:41:56.126Z,14.03
2023-04-10T06:44:23.808Z,14.03
2023-04-10T06:46:51.853Z,14.05
2023-04-10T06:49:19.555Z,14.07
2023-04-10T06:51:48.224Z,14.06
2023-04-10T06:54:17.596Z,14.07
2023-04-10T06:56:45.316Z,14.09
2023-04-10T06:59:12.976Z,14.11
2023-04-10T07:01:41.125Z,14.12
2023-04-10T07:04:08.986Z,14.14
2023-04-10T07:06:36.734Z,14.16
2023-04-10T07:09:05.005Z,14.16
2023-04-10T07:11:34.098Z,14.20
2023-04-10T07:14:01.761Z,14.21
2023-04-10T07:16:30.226Z,14.23
2023-04-10T07:18:57.943Z,14.25
2023-04-10T07:21:27.167Z,14.28
2023-04-10T07:23:55.478Z,14.31
2023-04-10T07:26:23.136Z,14.34
2023-04-10T07:28:52.374Z,14.39
2023-04-10T07:31:20.688Z,14.42
2023-04-10T07:33:48.520Z,14.44
2023-04-10T07:36:16.588Z,14.48
2023-04-10T07:38:45.083Z,14.52
2023-04-10T07:41:13.078Z,14.57
2023-04-10T07:43:41.492Z,14.62
2023-04-10T07:46:11.736Z,14.65
2023-04-10T07:48:39.405Z,14.68
2023-04-10T07:51:09.296Z,14.71
2023-04-10T07:53:37.653Z,14.74
2023-04-10T07:56:06.194Z,14.77
2023-04-10T07:58:34.127Z,14.82
2023-04-10T08:01:02.125Z,14.83
2023-04-10T08:03:31.461Z,14.88
2023-04-10T08:05:59.333Z,14.89
2023-04-10T08:08:27.520Z,14.88
2023-04-10T08:10:55.363Z,14.93
2023-04-10T08:13:23.071Z,14.95
2023-04-10T08:15:51.748Z,15.00
2023-04-10T08:18:19.393Z,15.04
2023-04-10T08:20:48.421Z,15.08
2023-04-10T08:23:20.375Z,15.12
2023-04-10T08:25:48.810Z,15.16
2023-04-10T08:28:16.698Z,15.22
2023-04-10T08:30:44.401Z,15.26
2023-04-10T08:33:12.095Z,15.29
2023-04-10T08:35:39.807Z,15.34
2023-04-10T08:38:14.045Z,15.38
2023-04-10T08:40:45.032Z,15.42
2023-04-10T08:43:12.767Z,15.45
2023-04-10T08:45:41.707Z,15.50
2023-04-10T08:48:12.304Z,15.50
2023-04-10T08:50:43.042Z,15.62
2023-04-10T08:53:14.337Z,15.67
2023-04-10T08:55:43.024Z,15.71
2023-04-10T08:58:13.550Z,15.75
2023-04-10T09:00:42.148Z,15.79
2023-04-10T09:03:11.896Z,15.83
2023-04-10T09:05:40.064Z,15.87
2023-04-10T09:08:09.671Z,15.89
2023-04-10T09:10:39.427Z,15.94
2023-04-10T09:13:07.320Z,16.01
2023-04-10T09:16:00.909Z,16.05
2023-04-10T09:18:47.044Z,16.09
2023-04-10T09:21:17.966Z,16.13
2023-04-10T09:23:48.866Z,16.18
2023-04-10T09:26:29.275Z,16.24
2023-04-10T09:29:02.124Z,16.27
2023-04-10T09:31:36.105Z,16.35
2023-04-10T09:34:13.691Z,16.39
2023-04-10T09:36:43.575Z,16.43
2023-04-10T09:39:13.479Z,16.49
2023-04-10T09:41:55.654Z,16.56
2023-04-10T09:44:31.614Z,16.64
2023-04-10T09:47:00.437Z,16.68
2023-04-10T09:49:28.667Z,16.74
2023-04-10T09:51:56.788Z,16.79
2023-04-10T09:54:38.409Z,16.85
2023-04-10T09:57:08.404Z,16.92
2023-04-10T09:59:42.975Z,16.99
2023-04-10T10:02:12.462Z,17.06
2023-04-10T10:04:41.688Z,17.15
2023-04-10T10:07:10.183Z,17.23
2023-04-10T10:09:38.620Z,17.31
2023-04-10T10:12:10.932Z,17.40
2023-04-10T10:14:44.899Z,17.48
2023-04-10T10:17:15.908Z,17.60
2023-04-10T10:19:51.442Z,17.73
2023-04-10T10:22:20.932Z,17.83
2023-04-10T10:24:49.571Z,17.95
2023-04-10T10:27:21.380Z,18.05
2023-04-10T10:29:50.913Z,18.20
2023-04-10T10:32:18.834Z,18.33
2023-04-10T10:34:47.512Z,18.46
2023-04-10T10:37:16.242Z,18.53
2023-04-10T10:39:52.115Z,18.64
2023-04-10T10:42:32.156Z,18.72
2023-04-10T10:45:11.990Z,18.77
2023-04-10T10:47:47.343Z,18.87
2023-04-10T10:50:16.018Z,18.84
2023-04-10T10:52:49.768Z,18.92
2023-04-10T10:55:35.613Z,18.93
2023-04-10T10:58:06.857Z,18.98
2023-04-10T11:01:09.188Z,19.03
2023-04-10T11:03:37.988Z,19.04
2023-04-10T11:06:09.167Z,19.06
2023-04-10T11:08:42.682Z,19.06
2023-04-10T11:11:13.651Z,19.07
2023-04-10T11:14:04.199Z,19.09
2023-04-10T11:16:48.902Z,19.12
2023-04-10T11:19:22.654Z,19.14
2023-04-10T11:22:09.525Z,19.19
2023-04-10T11:24:58.742Z,19.24
2023-04-10T11:27:49.256Z,19.30
2023-04-10T11:30:34.872Z,19.33
2023-04-10T11:33:04.501Z,19.37
2023-04-10T11:35:33.923Z,19.41
2023-04-10T11:38:13.480Z,19.44
2023-04-10T11:41:11.477Z,19.50
2023-04-10T11:43:40.396Z,19.52
2023-04-10T11:46:10.272Z,19.53
2023-04-10T11:48:38.694Z,19.55
2023-04-10T11:51:11.350Z,19.55
2023-04-10T11:53:39.868Z,19.55
2023-04-10T11:56:17.291Z,19.56
2023-04-10T11:58:45.459Z,19.56
2023-04-10T12:01:15.669Z,19.58
2023-04-10T12:03:45.519Z,19.61
2023-04-10T12:06:15.659Z,19.64
2023-04-10T12:08:46.938Z,19.67
2023-04-10T12:11:16.100Z,19.69
2023-04-10T12:13:44.218Z,19.70
2023-04-10T12:16:15.081Z,19.72
2023-04-10T12:18:43.693Z,19.73
2023-04-10T12:21:11.926Z,19.75
2023-04-10T12:23:41.138Z,19.75
2023-04-10T12:26:14.220Z,19.78
2023-04-10T12:28:53.600Z,19.78
2023-04-10T12:31:29.446Z,19.82
2023-04-10T12:33:59.208Z,19.84
2023-04-10T12:36:29.872Z,19.78
2023-04-10T12:38:58.258Z,19.81
2023-04-10T12:41:29.073Z,19.79
2023-04-10T12:44:08.683Z,19.80
2023-04-10T12:46:39.020Z,19.78
2023-04-10T12:49:11.523Z,19.84
2023-04-10T12:51:48.256Z,19.82
2023-04-10T12:54:30.024Z,19.79
2023-04-10T12:56:58.898Z,19.78
2023-04-10T12:59:28.063Z,19.80
2023-04-10T13:01:57.845Z,19.84
2023-04-10T13:04:27.121Z,19.86
2023-04-10T13:06:55.190Z,19.84
2023-04-10T13:09:23.452Z,19.81
2023-04-10T13:11:53.410Z,19.84
2023-04-10T13:14:21.698Z,19.80
2023-04-10T13:16:49.849Z,19.80
2023-04-10T13:19:19.620Z,19.79
2023-04-10T13:21:47.666Z,19.77
2023-04-10T13:24:16.731Z,19.73
2023-04-10T13:26:45.592Z,19.72
2023-04-10T13:29:13.521Z,19.67
2023-04-10T13:31:41.529Z,19.67
2023-04-10T13:34:09.756Z,19.66
2023-04-10T13:36:39.344Z,19.66
2023-04-10T13:39:07.323Z,19.63
2023-04-10T13:41:36.112Z,19.62
2023-04-10T13:44:04.192Z,19.60
2023-04-10T13:46:32.174Z,19.62
2023-04-10T13:49:00.241Z,19.60
2023-04-10T13:51:29.808Z,19.60
2023-04-10T13:53:59.129Z,19.62
2023-04-10T13:56:27.671Z,19.62
2023-04-10T13:58:56.005Z,19.63
2023-04-10T14:01:24.459Z,19.66
2023-04-10T14:03:53.208Z,19.66
2023-04-10T14:06:21.229Z,19.66
2023-04-10T14:08:49.261Z,19.68
2023-04-10T14:11:18.859Z,19.73
2023-04-10T14:13:46.551Z,19.76
2023-04-10T14:16:14.536Z,19.79
2023-04-10T14:18:43.029Z,19.80
2023-04-10T14:21:11.533Z,19.82
2023-04-10T14:23:39.513Z,19.82
2023-04-10T14:26:08.393Z,19.79
2023-04-10T14:28:37.753Z,19.87
2023-04-10T14:31:06.330Z,19.86
2023-04-10T14:33:35.575Z,19.87
2023-04-10T14:36:03.643Z,19.89
2023-04-10T14:38:31.655Z,19.90
2023-04-10T14:41:00.113Z,19.94
2023-04-10T14:43:27.951Z,19.90
2023-04-10T14:45:57.277Z,19.86
2023-04-10T14:48:25.841Z,19.83
2023-04-10T14:50:54.970Z,19.69
2023-04-10T14:53:23.164Z,19.63
2023-04-10T14:55:51.761Z,19.52
2023-04-10T14:58:19.756Z,19.41
2023-04-10T15:00:48.131Z,19.32
2023-04-10T15:03:18.044Z,19.26
2023-04-10T15:05:46.368Z,19.13
2023-04-10T15:08:14.239Z,19.05
2023-04-10T15:10:42.731Z,18.94
2023-04-10T15:13:10.735Z,18.82
2023-04-10T15:15:38.741Z,18.74
2023-04-10T15:18:07.310Z,18.72
2023-04-10T15:20:36.626Z,18.68
2023-04-10T15:23:04.547Z,18.62
2023-04-10T15:25:34.326Z,18.57
2023-04-10T15:28:02.550Z,18.56
2023-04-10T15:30:31.308Z,18.53
2023-04-10T15:32:59.747Z,18.48
2023-04-10T15:35:28.742Z,18.45
2023-04-10T15:37:58.099Z,18.41
2023-04-10T15:40:26.729Z,18.34
2023-04-10T15:42:54.606Z,18.28
2023-04-10T15:45:22.750Z,18.22
2023-04-10T15:47:51.510Z,18.14
2023-04-10T15:50:19.541Z,18.09
2023-04-10T15:52:47.366Z,18.05
2023-04-10T15:55:17.891Z,18.02
2023-04-10T15:57:45.836Z,17.94
2023-04-10T16:00:14.924Z,17.87
2023-04-10T16:02:43.521Z,17.81
2023-04-10T16:05:11.571Z,17.77
2023-04-10T16:07:40.707Z,17.70
2023-04-10T16:10:10.876Z,17.66
2023-04-10T16:12:40.114Z,17.60
2023-04-10T16:15:09.134Z,17.54
2023-04-10T16:17:37.627Z,17.48
2023-04-10T16:20:06.726Z,17.38
2023-04-10T16:22:34.797Z,17.37
2023-04-10T16:27:32.295Z,17.29
2023-04-10T16:30:01.746Z,17.24
2023-04-10T16:32:31.721Z,17.19
2023-04-10T16:35:00.162Z,17.15
2023-04-10T16:37:28.089Z,17.11
2023-04-10T16:39:56.919Z,17.03
2023-04-10T16:42:24.770Z,16.98
2023-04-10T16:44:53.384Z,16.90
2023-04-10T16:47:23.067Z,16.82
2023-04-10T16:49:52.498Z,16.80
2023-04-10T16:52:20.483Z,16.72
2023-04-10T16:54:49.039Z,16.68
2023-04-10T16:57:16.905Z,16.65
2023-04-10T16:59:44.984Z,16.64
2023-04-10T17:02:13.665Z,16.65
2023-04-10T17:04:43.111Z,16.61
2023-04-10T17:07:11.085Z,16.60
2023-04-10T17:09:39.600Z,16.58
2023-04-10T17:12:07.684Z,16.54
2023-04-10T17:14:35.735Z,16.42
2023-04-10T17:17:04.710Z,16.44
2023-04-10T17:19:33.992Z,16.43
2023-04-10T17:22:03.594Z,16.45
2023-04-10T17:24:32.060Z,16.40
2023-04-10T17:27:02.009Z,16.39
2023-04-10T17:29:30.074Z,16.36
2023-04-10T17:31:58.662Z,16.34
2023-04-10T17:34:26.727Z,16.34
2023-04-10T17:36:54.695Z,16.34
2023-04-10T17:39:25.055Z,16.36
2023-04-10T17:41:52.877Z,16.36
2023-04-10T17:44:21.007Z,16.36
2023-04-10T17:46:49.583Z,16.35
2023-04-10T17:49:17.627Z,16.35
2023-04-10T17:51:45.590Z,16.35
2023-04-10T17:54:14.063Z,16.35
2023-04-10T17:56:43.485Z,16.35
2023-04-10T17:59:11.720Z,16.30
2023-04-10T18:01:39.971Z,16.34
2023-04-10T18:04:08.103Z,16.30
2023-04-10T18:06:36.220Z,16.36
2023-04-10T18:09:04.682Z,16.38
2023-04-10T18:11:32.613Z,16.40
2023-04-10T18:14:01.931Z,16.41
2023-04-10T18:16:31.461Z,16.40
2023-04-10T18:18:59.399Z,16.38
2023-04-10T18:21:27.277Z,16.34
2023-04-10T18:23:55.776Z,16.30
2023-04-10T18:26:24.734Z,16.28
2023-04-10T18:28:53.152Z,16.25
2023-04-10T18:31:23.342Z,16.21
2023-04-10T18:36:24.729Z,16.12
2023-04-10T18:38:53.124Z,16.08
2023-04-10T18:41:21.254Z,16.04
2023-04-10T18:44:01.669Z,15.98
2023-04-10T18:46:34.328Z,15.99
2023-04-10T18:49:03.212Z,16.02
2023-04-10T18:51:31.391Z,15.99
2023-04-10T18:53:59.829Z,15.96
2023-04-10T18:56:28.176Z,15.91
2023-04-10T18:58:56.226Z,15.87
2023-04-10T19:01:24.307Z,15.85
2023-04-10T19:03:55.519Z,15.77
2023-04-10T19:06:24.809Z,15.77
2023-04-10T19:08:52.881Z,15.74
2023-04-10T19:11:21.884Z,15.68
2023-04-10T19:13:49.907Z,15.69
2023-04-10T19:16:19.509Z,15.63
2023-04-10T19:18:48.508Z,15.60
2023-04-10T19:21:17.866Z,15.60
2023-04-10T19:23:46.450Z,15.54
2023-04-10T19:26:14.910Z,15.52
2023-04-10T19:28:42.793Z,15.50
2023-04-10T19:31:10.782Z,15.44
2023-04-10T19:33:40.217Z,15.44
2023-04-10T19:36:08.972Z,15.46
2023-04-10T19:38:41.296Z,15.44
2023-04-10T19:41:15.214Z,15.43
2023-04-10T19:43:44.186Z,15.41
2023-04-10T19:46:18.647Z,15.35
2023-04-10T19:48:47.455Z,15.32
2023-04-10T19:51:15.311Z,15.34
2023-04-10T19:53:45.054Z,15.29
2023-04-10T19:56:13.756Z,15.23
2023-04-10T19:58:43.858Z,15.22
2023-04-10T20:01:13.816Z,15.22
2023-04-10T20:03:42.055Z,15.21
2023-04-10T20:06:10.522Z,15.16
2023-04-10T20:08:38.934Z,15.10
2023-04-10T20:11:09.531Z,15.09
2023-04-10T20:13:38.594Z,15.05
2023-04-10T20:16:07.786Z,15.07
2023-04-10T20:18:36.071Z,15.07
2023-04-10T20:21:04.703Z,15.00
2023-04-10T20:23:32.949Z,15.02
2023-04-10T20:26:00.881Z,15.02
2023-04-10T20:28:30.119Z,15.03
2023-04-10T20:30:58.285Z,15.01
2023-04-10T20:33:26.106Z,15.03
2023-04-10T20:35:54.215Z,15.01
2023-04-10T20:38:22.624Z,14.97
2023-04-10T20:40:50.765Z,14.96
2023-04-10T20:43:18.845Z,14.91
2023-04-10T20:45:48.345Z,14.89
2023-04-10T20:48:16.262Z,14.89
2023-04-10T20:50:49.268Z,14.84
2023-04-10T20:53:17.053Z,14.82
2023-04-10T20:55:44.972Z,14.81
2023-04-10T20:58:13.215Z,14.79
2023-04-10T21:00:41.294Z,14.72
2023-04-10T21:03:10.850Z,14.67
2023-04-10T21:05:40.276Z,14.72
2023-04-10T21:08:08.338Z,14.72
2023-04-10T21:10:40.300Z,14.66
2023-04-10T21:13:08.156Z,14.61
2023-04-10T21:15:36.006Z,14.63
2023-04-10T21:18:04.298Z,14.61
2023-04-10T21:20:34.973Z,14.62
2023-04-10T21:23:03.412Z,14.63
2023-04-10T21:25:34.443Z,14.63
2023-04-10T21:28:02.811Z,14.63
2023-04-10T21:30:30.921Z,14.63
2023-04-10T21:32:59.465Z,14.61
2023-04-10T21:35:27.880Z,14.60
2023-04-10T21:38:02.118Z,14.63
2023-04-10T21:40:34.286Z,14.64
2023-04-10T21:43:03.272Z,14.61
2023-04-10T21:45:31.542Z,14.62
2023-04-10T21:48:00.818Z,14.58
2023-04-10T21:50:29.576Z,14.59
2023-04-10T21:53:00.170Z,14.58
2023-04-10T21:55:28.199Z,14.60
2023-04-10T21:57:56.796Z,14.62
2023-04-10T22:00:24.781Z,14.57
2023-04-10T22:02:53.070Z,14.56
2023-04-10T22:05:21.872Z,14.57
2023-04-10T22:07:49.863Z,14.57
2023-04-10T22:10:19.308Z,14.58
2023-04-10T22:12:48.975Z,14.50
2023-04-10T22:15:17.586Z,14.56
2023-04-10T22:17:45.944Z,14.53
2023-04-10T22:20:14.860Z,14.50
2023-04-10T22:22:42.910Z,14.49
2023-04-10T22:25:11.060Z,14.47
2023-04-10T22:27:41.146Z,14.47
2023-04-10T22:30:10.297Z,14.47
2023-04-10T22:32:38.514Z,14.42
2023-04-10T22:35:08.333Z,14.40
2023-04-10T22:37:36.397Z,14.39
2023-04-10T22:40:04.519Z,14.30
2023-04-10T22:42:33.172Z,14.31
2023-04-10T22:45:02.862Z,14.32
2023-04-10T22:47:30.781Z,14.28
2023-04-10T22:49:59.179Z,14.27
2023-04-10T22:52:27.088Z,14.23
2023-04-10T22:54:55.127Z,14.18
2023-04-10T22:57:23.945Z,14.17
2023-04-10T22:59:51.935Z,14.15
2023-04-10T23:02:21.198Z,14.15
2023-04-10T23:04:49.649Z,14.08
2023-04-10T23:07:17.640Z,14.07
2023-04-10T23:09:45.293Z,13.99
2023-04-10T23:12:13.670Z,13.97
2023-04-10T23:14:41.361Z,13.93
2023-04-10T23:17:09.061Z,13.88
2023-04-10T23:19:39.024Z,13.93
2023-04-10T23:22:06.714Z,13.91
2023-04-10T23:24:34.424Z,13.95
2023-04-10T23:27:02.502Z,13.95
2023-04-10T23:29:30.168Z,13.95
2023-04-10T23:31:57.852Z,13.89
2023-04-10T23:34:26.999Z,13.89
2023-04-10T23:36:56.866Z,13.85
2023-04-10T23:39:24.700Z,13.80
2023-04-10T23:41:53.240Z,13.77
2023-04-10T23:44:20.997Z,13.78
2023-04-10T23:46:49.538Z,13.79
2023-04-10T23:49:17.865Z,13.74
2023-04-10T23:51:46.104Z,13.81
2023-04-10T23:54:15.372Z,13.76
2023-04-10T23:56:43.294Z,13.79
2023-04-10T23:59:10.991Z,13.80
